createdAt,value
2023-01-17T00:00:00.545Z,0.3
2023-01-17T00:06:20.527Z,0.3
2023-01-17T00:12:43.501Z,0.8
2023-01-17T00:19:03.706Z,0.8
2023-01-17T00:25:26.520Z,1
2023-01-17T00:31:46.702Z,1
2023-01-17T00:38:09.631Z,0.7
2023-01-17T00:44:29.655Z,0.7
2023-01-17T00:50:52.596Z,0.9
2023-01-17T00:57:12.678Z,0.9
2023-01-17T01:03:35.618Z,0.7
2023-01-17T01:09:55.801Z,0.7
2023-01-17T01:16:18.780Z,0.8
2023-01-17T01:22:38.684Z,0.8
2023-01-17T01:29:01.630Z,0.5
2023-01-17T01:35:21.696Z,0.5
2023-01-17T01:41:44.662Z,0.4
2023-01-17T01:48:04.570Z,0.4
2023-01-17T01:54:27.737Z,0.8
2023-01-17T02:00:47.922Z,0.8
2023-01-17T02:07:10.671Z,0.4
2023-01-17T02:13:30.646Z,0.4
2023-01-17T02:19:53.488Z,2.5
2023-01-17T02:26:13.535Z,2.5
2023-01-17T02:32:36.669Z,2.3
2023-01-17T02:38:56.732Z,2.3
2023-01-17T02:45:19.593Z,2.2
2023-01-17T02:51:39.594Z,2.2
2023-01-17T02:58:02.767Z,0.4
2023-01-17T03:04:22.718Z,0.4
2023-01-17T03:10:45.540Z,1.7
2023-01-17T03:17:05.572Z,1.7
2023-01-17T03:23:28.508Z,1.6
2023-01-17T03:29:48.779Z,1.6
2023-01-17T03:36:11.729Z,1.6
2023-01-17T03:42:31.663Z,1.6
2023-01-17T03:48:54.747Z,1.5
2023-01-17T03:55:14.653Z,1.5
2023-01-17T04:01:37.716Z,0.7
2023-01-17T04:17:26.387Z,2.9
2023-01-17T04:23:46.499Z,2.9
2023-01-17T04:30:09.597Z,2.4
2023-01-17T04:36:29.575Z,2.4
2023-01-17T04:42:52.508Z,2.4
2023-01-17T04:49:12.538Z,2.4
2023-01-17T04:55:35.657Z,0.9
2023-01-17T05:01:55.581Z,0.9
2023-01-17T05:08:18.499Z,1.8
2023-01-17T05:14:38.557Z,1.8
2023-01-17T05:21:01.642Z,1.2
2023-01-17T05:27:21.544Z,1.2
2023-01-17T05:33:44.609Z,1.2
2023-01-17T05:40:04.582Z,1.2
2023-01-17T05:46:27.672Z,2
2023-01-17T05:52:47.522Z,2
2023-01-17T05:59:12.599Z,1.7
2023-01-17T06:05:30.569Z,1.7
2023-01-17T06:11:53.606Z,3
2023-01-17T06:18:13.585Z,3
2023-01-17T06:24:36.494Z,1.5
2023-01-17T06:30:56.683Z,1.5
2023-01-17T06:37:19.496Z,1.2
2023-01-17T06:43:39.586Z,1.2
2023-01-17T06:50:02.725Z,1.3
2023-01-17T06:56:22.586Z,1.3
2023-01-17T07:02:45.689Z,1.6
2023-01-17T07:09:05.585Z,1.6
2023-01-17T07:15:28.503Z,1.3
2023-01-17T07:21:48.633Z,1.3
2023-01-17T07:28:11.516Z,2.1
2023-01-17T07:34:31.804Z,2.1
2023-01-17T07:40:54.669Z,2.6
2023-01-17T07:47:14.676Z,2.6
2023-01-17T07:53:37.669Z,2.8
2023-01-17T07:59:57.577Z,2.8
2023-01-17T08:06:20.653Z,1
2023-01-17T08:12:40.616Z,1
2023-01-17T08:19:03.503Z,1
2023-01-17T08:25:23.632Z,1
2023-01-17T08:31:46.606Z,2.6
2023-01-17T08:38:06.689Z,2.6
2023-01-17T08:44:29.723Z,1
2023-01-17T08:50:49.591Z,1
2023-01-17T08:57:12.620Z,2.4
2023-01-17T09:20:01.426Z,2.7
2023-01-17T09:26:21.509Z,2.7
2023-01-17T09:32:44.575Z,2.9
2023-01-17T09:39:04.639Z,2.9
2023-01-17T09:45:27.571Z,1.9
2023-01-17T09:51:48.075Z,1.9
2023-01-17T09:58:10.591Z,1.2
2023-01-17T10:04:30.531Z,1.2
2023-01-17T10:10:53.507Z,2.3
2023-01-17T10:17:13.659Z,2.3
2023-01-17T10:23:36.645Z,1.9
2023-01-17T10:29:56.640Z,1.9
2023-01-17T10:36:19.626Z,2.4
2023-01-17T10:42:39.569Z,2.4
2023-01-17T10:49:02.577Z,2.3
2023-01-17T10:55:22.675Z,2.3
2023-01-17T11:01:45.677Z,1.3
2023-01-17T11:08:05.568Z,1.3
2023-01-17T11:14:28.591Z,1.4
2023-01-17T11:20:48.573Z,1.4
2023-01-17T11:27:11.540Z,0.8
2023-01-17T11:33:31.734Z,0.8
2023-01-17T11:39:54.571Z,1.7
2023-01-17T11:46:14.636Z,1.7
2023-01-17T11:52:37.632Z,2.1
2023-01-17T11:58:57.640Z,2.1
2023-01-17T12:05:20.570Z,1.9
2023-01-17T12:11:41.139Z,1.9
2023-01-17T12:18:03.848Z,0.9
2023-01-17T12:24:23.536Z,0.9
2023-01-17T12:30:46.578Z,1.5
2023-01-17T12:37:06.537Z,1.5
2023-01-17T12:43:29.607Z,0.8
2023-01-17T12:49:49.557Z,0.8
2023-01-17T12:56:12.581Z,1.3
2023-01-17T13:02:32.624Z,1.3
2023-01-17T13:08:55.576Z,0.8
2023-01-17T13:15:15.708Z,0.8
2023-01-17T13:21:38.515Z,1.6
2023-01-17T13:27:58.586Z,1.6
2023-01-17T13:34:21.569Z,1.1
2023-01-17T13:40:41.679Z,1.1
2023-01-17T13:47:04.556Z,0.7
2023-01-17T13:53:24.522Z,0.7
2023-01-17T13:59:47.570Z,0.2
2023-01-17T14:06:07.586Z,0.2
2023-01-17T14:28:55.473Z,1.1
2023-01-17T14:35:15.471Z,1.1
2023-01-17T14:41:38.558Z,1.4
2023-01-17T14:47:58.686Z,1.4
2023-01-17T14:54:21.584Z,1.3
2023-01-17T15:00:41.675Z,1.3
2023-01-17T15:07:04.700Z,0.6
2023-01-17T15:13:35.569Z,0.6
2023-01-17T15:19:47.760Z,0.7
2023-01-17T15:26:07.587Z,0.7
2023-01-17T15:32:30.735Z,0.9
2023-01-17T15:38:50.630Z,0.9
2023-01-17T15:45:14.766Z,0.6
2023-01-17T15:51:34.740Z,0.6
2023-01-17T15:57:57.672Z,0.6
2023-01-17T16:04:17.585Z,0.6
2023-01-17T16:10:40.586Z,2.4
2023-01-17T16:17:00.676Z,2.4
2023-01-17T16:23:23.732Z,1.2
2023-01-17T16:29:43.858Z,1.2
2023-01-17T16:36:06.928Z,0.7
2023-01-17T16:42:28.490Z,0.7
2023-01-17T16:48:49.692Z,1.2
2023-01-17T16:55:09.554Z,1.2
2023-01-17T17:01:32.687Z,1.2
2023-01-17T17:07:53.057Z,1.2
2023-01-17T17:14:16.166Z,1.3
2023-01-17T17:20:36.758Z,1.3
2023-01-17T17:26:59.660Z,0.7
2023-01-17T17:33:19.592Z,0.7
2023-01-17T17:39:42.551Z,0.9
2023-01-17T17:46:02.709Z,0.9
2023-01-17T17:52:25.520Z,1.4
2023-01-17T17:58:46.234Z,1.4
2023-01-17T18:05:08.589Z,1.2
2023-01-17T18:11:28.691Z,1.2
2023-01-17T18:17:51.786Z,2.1
2023-01-17T18:24:11.515Z,2.1
2023-01-17T18:30:34.697Z,3.2
2023-01-17T18:36:54.596Z,3.2
2023-01-17T18:43:17.549Z,3.2
2023-01-17T18:49:37.863Z,3.2
2023-01-17T18:56:00.644Z,2.2
2023-01-17T19:02:20.633Z,2.2
2023-01-17T19:08:43.512Z,2.1
2023-01-17T19:24:14.481Z,3.8
2023-01-17T19:30:34.483Z,3.8
2023-01-17T19:36:57.475Z,8.6
2023-01-17T19:43:17.640Z,8.6
2023-01-17T19:49:40.483Z,8.6
2023-01-17T19:56:00.522Z,8.6
2023-01-17T20:02:23.595Z,3
2023-01-17T20:08:43.705Z,3
2023-01-17T20:15:06.690Z,6.3
2023-01-17T20:21:26.560Z,6.3
2023-01-17T20:27:49.699Z,5.1
2023-01-17T20:34:09.510Z,5.1
2023-01-17T20:40:32.672Z,4.2
2023-01-17T20:46:52.521Z,4.2
2023-01-17T20:53:15.463Z,4
2023-01-17T20:59:35.507Z,4
2023-01-17T21:05:58.539Z,3.8
2023-01-17T21:12:18.706Z,3.8
2023-01-17T21:18:41.770Z,3.1
2023-01-17T21:25:01.536Z,3.1
2023-01-17T21:31:24.652Z,3.3
2023-01-17T21:37:44.533Z,3.3
2023-01-17T21:44:07.479Z,4.2
2023-01-17T21:50:33.203Z,4.2
2023-01-17T21:56:50.532Z,3.9
2023-01-17T22:03:10.550Z,3.9
2023-01-17T22:09:33.562Z,1.8
2023-01-17T22:15:54.299Z,1.8
2023-01-17T22:22:17.545Z,2.9
2023-01-17T22:28:37.663Z,2.9
2023-01-17T22:35:00.680Z,2.9
2023-01-17T22:41:20.532Z,2.9
2023-01-17T22:47:43.574Z,2.8
2023-01-17T22:54:03.593Z,2.8
2023-01-17T23:00:26.535Z,3
2023-01-17T23:23:23.544Z,10.7
2023-01-17T23:29:43.476Z,10.7
2023-01-17T23:36:06.609Z,10.7
2023-01-17T23:42:26.653Z,10.7
2023-01-17T23:48:49.544Z,4.4
2023-01-17T23:55:09.535Z,4.4
